KFME

Tipton Airport

Fort Meade(Odenton), Maryland, USA
METAR KFME 150312Z AUTO 00000KT 7SM SCT120 20/19 A2999 RMK AO1
Observed Flight Rules
Aug-15 @ 03:12 UTC (24 minutes ago) Visual Flight Rules
Visibility Clouds
7 miles
  • Scattered at 12,000' AGL
Temperatures Readings
Current 20°C / 68°F
Dewpoint 19°C / 66°F
Humidity 94%
Altimeter 29.99" Hg
Pressure 1016 hPa
Elevation 46
METAR KFME 150312Z AUTO 00000KT 7SM SCT120 20/19 A2999 RMK AO1
Observed Flight Rules
Aug-15 @ 03:12 UTC
(24 minutes ago)
VFR
Clouds
  • Scattered at 12,000' AGL
Temperature Dewpoint
20°C / 68°F 19°C / 66°F
Humidity Altimeter Pressure
94% 29.99" Hg 1016 hPa